sensor_id;sensor_type;location;lat;lon;timestamp;P1;durP1;ratioP1;P2;durP2;ratioP2
36663;SDS011;53333;51.976;20.144;2022-07-25T00:02:05;11.18;;;8.60;;
36663;SDS011;53333;51.976;20.144;2022-07-25T00:04:39;12.30;;;7.80;;
36663;SDS011;53333;51.976;20.144;2022-07-25T00:07:13;8.32;;;7.53;;
36663;SDS011;53333;51.976;20.144;2022-07-25T00:09:47;8.45;;;7.43;;
36663;SDS011;53333;51.976;20.144;2022-07-25T00:12:25;12.10;;;8.13;;
36663;SDS011;53333;51.976;20.144;2022-07-25T00:14:59;12.70;;;8.32;;
36663;SDS011;53333;51.976;20.144;2022-07-25T00:17:33;18.80;;;8.10;;
36663;SDS011;53333;51.976;20.144;2022-07-25T00:20:07;10.23;;;7.22;;
36663;SDS011;53333;51.976;20.144;2022-07-25T00:22:41;11.65;;;7.00;;
36663;SDS011;53333;51.976;20.144;2022-07-25T00:25:15;10.45;;;7.07;;
36663;SDS011;53333;51.976;20.144;2022-07-25T00:27:50;8.25;;;7.25;;
36663;SDS011;53333;51.976;20.144;2022-07-25T00:30:24;8.32;;;7.18;;
36663;SDS011;53333;51.976;20.144;2022-07-25T00:32:57;8.98;;;7.20;;
36663;SDS011;53333;51.976;20.144;2022-07-25T00:35:31;9.30;;;6.80;;
36663;SDS011;53333;51.976;20.144;2022-07-25T00:38:05;8.02;;;6.65;;
36663;SDS011;53333;51.976;20.144;2022-07-25T00:40:39;7.18;;;6.47;;
36663;SDS011;53333;51.976;20.144;2022-07-25T00:43:14;9.52;;;6.78;;
36663;SDS011;53333;51.976;20.144;2022-07-25T00:45:47;7.68;;;6.90;;
36663;SDS011;53333;51.976;20.144;2022-07-25T00:48:21;7.63;;;6.47;;
36663;SDS011;53333;51.976;20.144;2022-07-25T00:50:55;10.73;;;6.85;;
36663;SDS011;53333;51.976;20.144;2022-07-25T00:53:29;7.22;;;6.53;;
36663;SDS011;53333;51.976;20.144;2022-07-25T00:56:03;14.43;;;6.82;;
36663;SDS011;53333;51.976;20.144;2022-07-25T00:58:39;9.60;;;6.82;;
36663;SDS011;53333;51.976;20.144;2022-07-25T01:01:13;10.55;;;7.60;;
36663;SDS011;53333;51.976;20.144;2022-07-25T01:03:47;7.93;;;6.85;;
36663;SDS011;53333;51.976;20.144;2022-07-25T01:06:21;9.10;;;7.32;;
36663;SDS011;53333;51.976;20.144;2022-07-25T01:08:55;10.32;;;7.03;;
36663;SDS011;53333;51.976;20.144;2022-07-25T01:11:29;12.02;;;8.35;;
36663;SDS011;53333;51.976;20.144;2022-07-25T01:14:05;8.68;;;7.53;;
36663;SDS011;53333;51.976;20.144;2022-07-25T01:16:39;8.05;;;7.25;;
36663;SDS011;53333;51.976;20.144;2022-07-25T01:19:13;8.95;;;6.50;;
36663;SDS011;53333;51.976;20.144;2022-07-25T01:21:48;7.82;;;7.00;;
36663;SDS011;53333;51.976;20.144;2022-07-25T01:24:22;10.88;;;6.30;;
36663;SDS011;53333;51.976;20.144;2022-07-25T01:26:56;10.55;;;7.50;;
36663;SDS011;53333;51.976;20.144;2022-07-25T01:29:29;11.48;;;7.10;;
36663;SDS011;53333;51.976;20.144;2022-07-25T01:32:06;10.57;;;6.93;;
36663;SDS011;53333;51.976;20.144;2022-07-25T01:34:40;8.60;;;7.55;;
36663;SDS011;53333;51.976;20.144;2022-07-25T01:37:15;8.40;;;7.05;;
36663;SDS011;53333;51.976;20.144;2022-07-25T01:39:49;9.32;;;6.72;;
36663;SDS011;53333;51.976;20.144;2022-07-25T01:42:23;9.05;;;7.28;;
36663;SDS011;53333;51.976;20.144;2022-07-25T01:44:57;7.60;;;6.90;;
36663;SDS011;53333;51.976;20.144;2022-07-25T01:47:30;7.82;;;6.88;;
36663;SDS011;53333;51.976;20.144;2022-07-25T01:50:05;10.20;;;7.07;;
36663;SDS011;53333;51.976;20.144;2022-07-25T01:52:40;9.65;;;7.25;;
36663;SDS011;53333;51.976;20.144;2022-07-25T01:55:15;8.93;;;6.95;;
36663;SDS011;53333;51.976;20.144;2022-07-25T01:57:50;8.60;;;7.30;;
36663;SDS011;53333;51.976;20.144;2022-07-25T02:00:27;8.18;;;7.35;;
36663;SDS011;53333;51.976;20.144;2022-07-25T02:03:01;12.35;;;7.65;;
36663;SDS011;53333;51.976;20.144;2022-07-25T02:05:52;12.75;;;7.40;;
36663;SDS011;53333;51.976;20.144;2022-07-25T02:08:28;10.38;;;7.88;;
36663;SDS011;53333;51.976;20.144;2022-07-25T02:11:03;9.50;;;7.95;;
36663;SDS011;53333;51.976;20.144;2022-07-25T02:13:37;12.43;;;7.68;;
36663;SDS011;53333;51.976;20.144;2022-07-25T02:16:11;8.90;;;8.00;;
36663;SDS011;53333;51.976;20.144;2022-07-25T02:18:45;10.77;;;7.95;;
36663;SDS011;53333;51.976;20.144;2022-07-25T02:21:19;13.55;;;8.00;;
36663;SDS011;53333;51.976;20.144;2022-07-25T02:23:54;8.23;;;7.32;;
36663;SDS011;53333;51.976;20.144;2022-07-25T02:26:28;9.85;;;8.10;;
36663;SDS011;53333;51.976;20.144;2022-07-25T02:29:02;12.30;;;7.90;;
36663;SDS011;53333;51.976;20.144;2022-07-25T02:31:36;9.82;;;8.27;;
36663;SDS011;53333;51.976;20.144;2022-07-25T02:34:10;8.88;;;7.97;;
36663;SDS011;53333;51.976;20.144;2022-07-25T02:36:44;9.73;;;8.48;;
36663;SDS011;53333;51.976;20.144;2022-07-25T02:39:19;10.52;;;7.88;;
36663;SDS011;53333;51.976;20.144;2022-07-25T02:41:53;9.65;;;8.52;;
36663;SDS011;53333;51.976;20.144;2022-07-25T02:44:27;9.13;;;8.20;;
36663;SDS011;53333;51.976;20.144;2022-07-25T02:47:01;9.13;;;8.10;;
36663;SDS011;53333;51.976;20.144;2022-07-25T02:49:35;9.15;;;7.97;;
36663;SDS011;53333;51.976;20.144;2022-07-25T02:52:08;8.55;;;7.75;;
36663;SDS011;53333;51.976;20.144;2022-07-25T02:54:44;9.82;;;8.20;;
36663;SDS011;53333;51.976;20.144;2022-07-25T02:57:17;10.48;;;8.30;;
36663;SDS011;53333;51.976;20.144;2022-07-25T02:59:51;12.15;;;8.65;;
36663;SDS011;53333;51.976;20.144;2022-07-25T03:02:25;13.00;;;9.38;;
36663;SDS011;53333;51.976;20.144;2022-07-25T03:04:59;11.68;;;8.23;;
36663;SDS011;53333;51.976;20.144;2022-07-25T03:07:32;11.02;;;8.75;;
36663;SDS011;53333;51.976;20.144;2022-07-25T03:10:08;12.20;;;8.32;;
36663;SDS011;53333;51.976;20.144;2022-07-25T03:12:43;9.05;;;8.13;;
36663;SDS011;53333;51.976;20.144;2022-07-25T03:15:17;10.30;;;8.23;;
36663;SDS011;53333;51.976;20.144;2022-07-25T03:17:51;9.38;;;8.27;;
36663;SDS011;53333;51.976;20.144;2022-07-25T03:20:25;12.15;;;8.07;;
36663;SDS011;53333;51.976;20.144;2022-07-25T03:22:59;10.02;;;8.60;;
36663;SDS011;53333;51.976;20.144;2022-07-25T03:25:34;11.15;;;8.32;;
36663;SDS011;53333;51.976;20.144;2022-07-25T03:28:08;12.68;;;8.95;;
36663;SDS011;53333;51.976;20.144;2022-07-25T03:30:41;11.73;;;7.95;;
36663;SDS011;53333;51.976;20.144;2022-07-25T03:33:15;11.70;;;8.13;;
36663;SDS011;53333;51.976;20.144;2022-07-25T03:35:49;9.13;;;7.82;;
36663;SDS011;53333;51.976;20.144;2022-07-25T03:38:22;9.48;;;8.48;;
36663;SDS011;53333;51.976;20.144;2022-07-25T03:40:58;11.27;;;8.20;;
36663;SDS011;53333;51.976;20.144;2022-07-25T03:43:31;9.07;;;8.18;;
36663;SDS011;53333;51.976;20.144;2022-07-25T03:48:38;12.40;;;7.72;;
36663;SDS011;53333;51.976;20.144;2022-07-25T03:51:12;10.00;;;7.95;;
36663;SDS011;53333;51.976;20.144;2022-07-25T03:53:46;10.43;;;7.82;;
36663;SDS011;53333;51.976;20.144;2022-07-25T03:56:38;10.38;;;7.75;;
36663;SDS011;53333;51.976;20.144;2022-07-25T03:59:15;12.00;;;7.85;;
36663;SDS011;53333;51.976;20.144;2022-07-25T04:01:50;9.40;;;7.97;;
36663;SDS011;53333;51.976;20.144;2022-07-25T04:04:24;8.60;;;7.70;;
36663;SDS011;53333;51.976;20.144;2022-07-25T04:06:57;8.20;;;7.40;;
36663;SDS011;53333;51.976;20.144;2022-07-25T04:09:31;9.02;;;8.13;;
36663;SDS011;53333;51.976;20.144;2022-07-25T04:12:07;9.57;;;7.38;;
36663;SDS011;53333;51.976;20.144;2022-07-25T04:14:41;11.70;;;9.00;;
36663;SDS011;53333;51.976;20.144;2022-07-25T04:17:14;11.32;;;7.53;;
36663;SDS011;53333;51.976;20.144;2022-07-25T04:19:49;10.55;;;7.80;;
36663;SDS011;53333;51.976;20.144;2022-07-25T04:22:23;9.65;;;8.00;;
36663;SDS011;53333;51.976;20.144;2022-07-25T04:24:57;9.30;;;7.85;;
36663;SDS011;53333;51.976;20.144;2022-07-25T04:27:32;8.10;;;7.20;;
36663;SDS011;53333;51.976;20.144;2022-07-25T04:30:07;12.40;;;7.60;;
36663;SDS011;53333;51.976;20.144;2022-07-25T04:32:41;9.75;;;7.68;;
36663;SDS011;53333;51.976;20.144;2022-07-25T04:35:15;11.40;;;7.25;;
36663;SDS011;53333;51.976;20.144;2022-07-25T04:37:49;8.32;;;6.78;;
36663;SDS011;53333;51.976;20.144;2022-07-25T04:40:23;8.93;;;7.40;;
36663;SDS011;53333;51.976;20.144;2022-07-25T04:42:58;8.77;;;6.70;;
36663;SDS011;53333;51.976;20.144;2022-07-25T04:45:31;11.77;;;6.68;;
36663;SDS011;53333;51.976;20.144;2022-07-25T04:48:05;7.95;;;6.13;;
36663;SDS011;53333;51.976;20.144;2022-07-25T04:50:40;7.80;;;6.47;;
36663;SDS011;53333;51.976;20.144;2022-07-25T04:53:13;10.23;;;6.75;;
36663;SDS011;53333;51.976;20.144;2022-07-25T04:55:47;7.57;;;6.20;;
36663;SDS011;53333;51.976;20.144;2022-07-25T04:58:22;6.88;;;6.18;;
36663;SDS011;53333;51.976;20.144;2022-07-25T05:00:56;9.65;;;6.43;;
36663;SDS011;53333;51.976;20.144;2022-07-25T05:03:30;7.28;;;5.90;;
36663;SDS011;53333;51.976;20.144;2022-07-25T05:06:04;9.75;;;5.97;;
36663;SDS011;53333;51.976;20.144;2022-07-25T05:08:40;9.68;;;5.95;;
36663;SDS011;53333;51.976;20.144;2022-07-25T05:11:14;10.23;;;6.15;;
36663;SDS011;53333;51.976;20.144;2022-07-25T05:13:49;10.73;;;6.07;;
36663;SDS011;53333;51.976;20.144;2022-07-25T05:16:23;8.25;;;5.85;;
36663;SDS011;53333;51.976;20.144;2022-07-25T05:18:57;6.85;;;5.40;;
36663;SDS011;53333;51.976;20.144;2022-07-25T05:21:31;7.60;;;5.57;;
36663;SDS011;53333;51.976;20.144;2022-07-25T05:24:05;8.77;;;5.60;;
36663;SDS011;53333;51.976;20.144;2022-07-25T05:26:40;7.30;;;5.72;;
36663;SDS011;53333;51.976;20.144;2022-07-25T05:29:15;9.48;;;5.35;;
36663;SDS011;53333;51.976;20.144;2022-07-25T05:31:49;7.43;;;5.00;;
36663;SDS011;53333;51.976;20.144;2022-07-25T05:34:22;6.47;;;5.55;;
36663;SDS011;53333;51.976;20.144;2022-07-25T05:36:56;8.98;;;5.22;;
36663;SDS011;53333;51.976;20.144;2022-07-25T05:39:30;6.53;;;4.97;;
36663;SDS011;53333;51.976;20.144;2022-07-25T05:42:03;5.45;;;4.93;;
36663;SDS011;53333;51.976;20.144;2022-07-25T05:44:39;6.68;;;4.95;;
36663;SDS011;53333;51.976;20.144;2022-07-25T05:47:13;6.53;;;4.65;;
36663;SDS011;53333;51.976;20.144;2022-07-25T05:49:46;5.38;;;4.80;;
36663;SDS011;53333;51.976;20.144;2022-07-25T05:52:20;8.68;;;4.40;;
36663;SDS011;53333;51.976;20.144;2022-07-25T05:54:54;7.70;;;4.85;;
36663;SDS011;53333;51.976;20.144;2022-07-25T05:57:28;8.35;;;5.68;;
36663;SDS011;53333;51.976;20.144;2022-07-25T06:00:03;6.13;;;5.50;;
36663;SDS011;53333;51.976;20.144;2022-07-25T06:02:39;7.22;;;5.05;;
36663;SDS011;53333;51.976;20.144;2022-07-25T06:05:12;7.57;;;5.00;;
36663;SDS011;53333;51.976;20.144;2022-07-25T06:07:46;6.90;;;5.00;;
36663;SDS011;53333;51.976;20.144;2022-07-25T06:10:20;6.90;;;5.13;;
36663;SDS011;53333;51.976;20.144;2022-07-25T06:12:54;5.75;;;4.88;;
36663;SDS011;53333;51.976;20.144;2022-07-25T06:15:29;5.20;;;4.63;;
36663;SDS011;53333;51.976;20.144;2022-07-25T06:18:04;7.00;;;4.57;;
36663;SDS011;53333;51.976;20.144;2022-07-25T06:20:38;5.93;;;4.68;;
36663;SDS011;53333;51.976;20.144;2022-07-25T06:23:11;5.65;;;4.80;;
36663;SDS011;53333;51.976;20.144;2022-07-25T06:25:45;7.63;;;4.13;;
36663;SDS011;53333;51.976;20.144;2022-07-25T06:28:21;4.53;;;4.13;;
36663;SDS011;53333;51.976;20.144;2022-07-25T06:30:56;4.63;;;4.03;;
36663;SDS011;53333;51.976;20.144;2022-07-25T06:33:30;4.78;;;4.28;;
36663;SDS011;53333;51.976;20.144;2022-07-25T06:36:04;7.25;;;4.35;;
36663;SDS011;53333;51.976;20.144;2022-07-25T06:38:38;6.65;;;3.75;;
36663;SDS011;53333;51.976;20.144;2022-07-25T06:41:15;6.60;;;3.85;;
36663;SDS011;53333;51.976;20.144;2022-07-25T06:43:48;13.18;;;10.80;;
36663;SDS011;53333;51.976;20.144;2022-07-25T06:46:23;4.57;;;4.15;;
36663;SDS011;53333;51.976;20.144;2022-07-25T06:49:00;7.18;;;3.42;;
36663;SDS011;53333;51.976;20.144;2022-07-25T06:51:34;4.38;;;3.28;;
36663;SDS011;53333;51.976;20.144;2022-07-25T06:54:08;4.43;;;3.30;;
36663;SDS011;53333;51.976;20.144;2022-07-25T06:56:41;3.10;;;2.80;;
36663;SDS011;53333;51.976;20.144;2022-07-25T06:59:15;3.95;;;2.95;;
36663;SDS011;53333;51.976;20.144;2022-07-25T07:01:50;4.18;;;3.03;;
36663;SDS011;53333;51.976;20.144;2022-07-25T07:04:24;3.42;;;2.70;;
36663;SDS011;53333;51.976;20.144;2022-07-25T07:06:58;3.17;;;2.88;;
36663;SDS011;53333;51.976;20.144;2022-07-25T07:09:32;3.45;;;3.08;;
36663;SDS011;53333;51.976;20.144;2022-07-25T07:12:08;6.70;;;3.53;;
36663;SDS011;53333;51.976;20.144;2022-07-25T07:14:43;5.45;;;3.63;;
36663;SDS011;53333;51.976;20.144;2022-07-25T07:17:18;4.35;;;3.60;;
36663;SDS011;53333;51.976;20.144;2022-07-25T07:19:52;2.80;;;2.33;;
36663;SDS011;53333;51.976;20.144;2022-07-25T07:22:25;2.55;;;2.35;;
36663;SDS011;53333;51.976;20.144;2022-07-25T07:24:59;2.83;;;2.20;;
36663;SDS011;53333;51.976;20.144;2022-07-25T07:27:33;4.03;;;2.60;;
36663;SDS011;53333;51.976;20.144;2022-07-25T07:30:07;3.10;;;2.80;;
36663;SDS011;53333;51.976;20.144;2022-07-25T07:32:43;3.92;;;2.53;;
36663;SDS011;53333;51.976;20.144;2022-07-25T07:35:17;3.45;;;2.50;;
36663;SDS011;53333;51.976;20.144;2022-07-25T07:37:51;3.72;;;2.70;;
36663;SDS011;53333;51.976;20.144;2022-07-25T07:40:25;3.00;;;2.70;;
36663;SDS011;53333;51.976;20.144;2022-07-25T07:42:59;4.50;;;2.30;;
36663;SDS011;53333;51.976;20.144;2022-07-25T07:45:34;3.05;;;2.42;;
36663;SDS011;53333;51.976;20.144;2022-07-25T07:48:09;2.78;;;2.08;;
36663;SDS011;53333;51.976;20.144;2022-07-25T07:50:43;4.25;;;2.30;;
36663;SDS011;53333;51.976;20.144;2022-07-25T07:53:17;2.60;;;2.35;;
36663;SDS011;53333;51.976;20.144;2022-07-25T07:55:50;3.42;;;2.30;;
36663;SDS011;53333;51.976;20.144;2022-07-25T07:58:26;2.35;;;1.90;;
36663;SDS011;53333;51.976;20.144;2022-07-25T08:01:00;2.58;;;2.00;;
36663;SDS011;53333;51.976;20.144;2022-07-25T08:03:36;3.80;;;2.30;;
36663;SDS011;53333;51.976;20.144;2022-07-25T08:06:12;4.30;;;2.40;;
36663;SDS011;53333;51.976;20.144;2022-07-25T08:08:47;3.50;;;2.10;;
36663;SDS011;53333;51.976;20.144;2022-07-25T08:11:21;4.20;;;2.03;;
36663;SDS011;53333;51.976;20.144;2022-07-25T08:13:56;3.67;;;2.28;;
36663;SDS011;53333;51.976;20.144;2022-07-25T08:16:30;3.45;;;1.73;;
36663;SDS011;53333;51.976;20.144;2022-07-25T08:19:05;2.33;;;2.00;;
36663;SDS011;53333;51.976;20.144;2022-07-25T08:21:39;3.65;;;2.30;;
36663;SDS011;53333;51.976;20.144;2022-07-25T08:24:17;3.03;;;1.77;;
36663;SDS011;53333;51.976;20.144;2022-07-25T08:26:51;3.10;;;2.17;;
36663;SDS011;53333;51.976;20.144;2022-07-25T08:29:25;2.05;;;1.85;;
36663;SDS011;53333;51.976;20.144;2022-07-25T08:31:59;2.45;;;1.77;;
36663;SDS011;53333;51.976;20.144;2022-07-25T08:34:37;3.05;;;2.20;;
36663;SDS011;53333;51.976;20.144;2022-07-25T08:37:10;4.47;;;1.90;;
36663;SDS011;53333;51.976;20.144;2022-07-25T08:39:44;2.40;;;2.08;;
36663;SDS011;53333;51.976;20.144;2022-07-25T08:42:18;4.47;;;1.88;;
36663;SDS011;53333;51.976;20.144;2022-07-25T08:44:54;2.00;;;1.75;;
36663;SDS011;53333;51.976;20.144;2022-07-25T08:47:30;2.90;;;1.90;;
36663;SDS011;53333;51.976;20.144;2022-07-25T08:50:07;2.78;;;2.00;;
36663;SDS011;53333;51.976;20.144;2022-07-25T08:52:42;5.22;;;1.80;;
36663;SDS011;53333;51.976;20.144;2022-07-25T08:55:17;3.13;;;2.25;;
36663;SDS011;53333;51.976;20.144;2022-07-25T08:57:53;1.67;;;1.58;;
36663;SDS011;53333;51.976;20.144;2022-07-25T09:00:27;3.75;;;1.58;;
36663;SDS011;53333;51.976;20.144;2022-07-25T09:03:01;2.15;;;1.50;;
36663;SDS011;53333;51.976;20.144;2022-07-25T09:05:45;6.60;;;3.10;;
36663;SDS011;53333;51.976;20.144;2022-07-25T09:08:19;2.33;;;1.60;;
36663;SDS011;53333;51.976;20.144;2022-07-25T09:10:53;1.70;;;1.60;;
36663;SDS011;53333;51.976;20.144;2022-07-25T09:13:29;3.67;;;1.48;;
36663;SDS011;53333;51.976;20.144;2022-07-25T09:16:09;1.45;;;1.35;;
36663;SDS011;53333;51.976;20.144;2022-07-25T09:18:44;8.48;;;6.57;;
36663;SDS011;53333;51.976;20.144;2022-07-25T09:21:19;1.95;;;1.50;;
36663;SDS011;53333;51.976;20.144;2022-07-25T09:23:53;2.58;;;1.30;;
36663;SDS011;53333;51.976;20.144;2022-07-25T09:26:27;2.72;;;1.50;;
36663;SDS011;53333;51.976;20.144;2022-07-25T09:29:01;2.15;;;1.50;;
36663;SDS011;53333;51.976;20.144;2022-07-25T09:31:34;2.22;;;1.20;;
36663;SDS011;53333;51.976;20.144;2022-07-25T09:34:11;3.40;;;1.48;;
36663;SDS011;53333;51.976;20.144;2022-07-25T09:36:53;2.00;;;1.38;;
36663;SDS011;53333;51.976;20.144;2022-07-25T09:42:14;1.23;;;1.13;;
36663;SDS011;53333;51.976;20.144;2022-07-25T09:45:01;2.70;;;1.60;;
36663;SDS011;53333;51.976;20.144;2022-07-25T09:47:50;3.35;;;2.20;;
36663;SDS011;53333;51.976;20.144;2022-07-25T09:50:25;1.98;;;1.45;;
36663;SDS011;53333;51.976;20.144;2022-07-25T09:53:02;4.10;;;1.60;;
36663;SDS011;53333;51.976;20.144;2022-07-25T09:55:36;2.13;;;1.48;;
36663;SDS011;53333;51.976;20.144;2022-07-25T09:58:11;2.65;;;1.50;;
36663;SDS011;53333;51.976;20.144;2022-07-25T10:00:45;9.32;;;1.83;;
36663;SDS011;53333;51.976;20.144;2022-07-25T10:03:22;2.55;;;1.30;;
36663;SDS011;53333;51.976;20.144;2022-07-25T10:06:05;1.90;;;1.65;;
36663;SDS011;53333;51.976;20.144;2022-07-25T10:08:47;3.42;;;1.50;;
36663;SDS011;53333;51.976;20.144;2022-07-25T10:11:22;1.52;;;1.42;;
36663;SDS011;53333;51.976;20.144;2022-07-25T10:14:07;1.58;;;1.48;;
36663;SDS011;53333;51.976;20.144;2022-07-25T10:16:45;2.10;;;1.45;;
36663;SDS011;53333;51.976;20.144;2022-07-25T10:19:38;3.55;;;3.25;;
36663;SDS011;53333;51.976;20.144;2022-07-25T10:22:21;2.30;;;2.00;;
36663;SDS011;53333;51.976;20.144;2022-07-25T10:25:17;2.38;;;1.40;;
36663;SDS011;53333;51.976;20.144;2022-07-25T10:27:53;5.28;;;1.70;;
36663;SDS011;53333;51.976;20.144;2022-07-25T10:30:32;4.65;;;1.60;;
36663;SDS011;53333;51.976;20.144;2022-07-25T10:33:10;2.47;;;1.58;;
36663;SDS011;53333;51.976;20.144;2022-07-25T10:35:44;2.97;;;1.35;;
36663;SDS011;53333;51.976;20.144;2022-07-25T10:38:22;1.60;;;1.48;;
36663;SDS011;53333;51.976;20.144;2022-07-25T10:40:58;1.52;;;1.23;;
36663;SDS011;53333;51.976;20.144;2022-07-25T10:43:35;3.08;;;1.20;;
36663;SDS011;53333;51.976;20.144;2022-07-25T10:46:10;2.78;;;1.60;;
36663;SDS011;53333;51.976;20.144;2022-07-25T10:48:55;1.92;;;1.30;;
36663;SDS011;53333;51.976;20.144;2022-07-25T10:51:31;3.60;;;1.60;;
36663;SDS011;53333;51.976;20.144;2022-07-25T10:54:12;5.13;;;1.20;;
36663;SDS011;53333;51.976;20.144;2022-07-25T10:56:53;1.50;;;1.40;;
36663;SDS011;53333;51.976;20.144;2022-07-25T10:59:31;1.98;;;1.73;;
36663;SDS011;53333;51.976;20.144;2022-07-25T11:02:07;2.75;;;1.70;;
36663;SDS011;53333;51.976;20.144;2022-07-25T11:04:56;1.63;;;1.38;;
36663;SDS011;53333;51.976;20.144;2022-07-25T11:07:31;7.38;;;5.22;;
36663;SDS011;53333;51.976;20.144;2022-07-25T11:10:07;3.22;;;1.52;;
36663;SDS011;53333;51.976;20.144;2022-07-25T11:12:44;2.00;;;1.60;;
36663;SDS011;53333;51.976;20.144;2022-07-25T11:15:20;1.65;;;1.40;;
36663;SDS011;53333;51.976;20.144;2022-07-25T11:17:55;3.50;;;1.30;;
36663;SDS011;53333;51.976;20.144;2022-07-25T11:20:29;4.88;;;1.63;;
36663;SDS011;53333;51.976;20.144;2022-07-25T11:23:03;3.00;;;1.23;;
36663;SDS011;53333;51.976;20.144;2022-07-25T11:25:37;1.90;;;1.27;;
36663;SDS011;53333;51.976;20.144;2022-07-25T11:28:14;1.70;;;1.60;;
36663;SDS011;53333;51.976;20.144;2022-07-25T11:30:47;1.48;;;1.20;;
36663;SDS011;53333;51.976;20.144;2022-07-25T11:33:21;3.15;;;1.17;;
36663;SDS011;53333;51.976;20.144;2022-07-25T11:35:55;3.03;;;1.40;;
36663;SDS011;53333;51.976;20.144;2022-07-25T11:38:30;3.28;;;1.38;;
36663;SDS011;53333;51.976;20.144;2022-07-25T11:41:05;2.38;;;1.38;;
36663;SDS011;53333;51.976;20.144;2022-07-25T11:43:46;4.05;;;1.70;;
36663;SDS011;53333;51.976;20.144;2022-07-25T11:46:20;2.20;;;1.58;;
36663;SDS011;53333;51.976;20.144;2022-07-25T11:49:01;3.85;;;1.52;;
36663;SDS011;53333;51.976;20.144;2022-07-25T11:51:37;1.58;;;1.48;;
36663;SDS011;53333;51.976;20.144;2022-07-25T11:54:12;2.25;;;1.20;;
36663;SDS011;53333;51.976;20.144;2022-07-25T11:56:47;1.80;;;1.40;;
36663;SDS011;53333;51.976;20.144;2022-07-25T11:59:22;1.65;;;1.20;;
36663;SDS011;53333;51.976;20.144;2022-07-25T12:01:56;3.60;;;1.65;;
36663;SDS011;53333;51.976;20.144;2022-07-25T12:04:30;1.40;;;1.27;;
36663;SDS011;53333;51.976;20.144;2022-07-25T12:07:04;1.23;;;1.13;;
36663;SDS011;53333;51.976;20.144;2022-07-25T12:09:37;2.35;;;1.60;;
36663;SDS011;53333;51.976;20.144;2022-07-25T12:12:11;1.75;;;1.33;;
36663;SDS011;53333;51.976;20.144;2022-07-25T12:14:46;1.80;;;1.60;;
36663;SDS011;53333;51.976;20.144;2022-07-25T12:17:20;3.53;;;1.60;;
36663;SDS011;53333;51.976;20.144;2022-07-25T12:19:54;3.53;;;1.52;;
36663;SDS011;53333;51.976;20.144;2022-07-25T12:22:27;1.75;;;1.30;;
36663;SDS011;53333;51.976;20.144;2022-07-25T12:25:01;4.25;;;1.40;;
36663;SDS011;53333;51.976;20.144;2022-07-25T12:27:35;1.63;;;1.52;;
36663;SDS011;53333;51.976;20.144;2022-07-25T12:30:11;2.38;;;1.20;;
36663;SDS011;53333;51.976;20.144;2022-07-25T12:32:45;2.38;;;1.38;;
36663;SDS011;53333;51.976;20.144;2022-07-25T12:35:19;3.58;;;1.42;;
36663;SDS011;53333;51.976;20.144;2022-07-25T12:37:53;2.70;;;1.80;;
36663;SDS011;53333;51.976;20.144;2022-07-25T12:40:27;2.72;;;1.27;;
36663;SDS011;53333;51.976;20.144;2022-07-25T12:43:02;1.55;;;1.27;;
36663;SDS011;53333;51.976;20.144;2022-07-25T12:45:38;2.90;;;1.25;;
36663;SDS011;53333;51.976;20.144;2022-07-25T12:48:13;1.40;;;1.20;;
36663;SDS011;53333;51.976;20.144;2022-07-25T12:50:47;2.55;;;1.60;;
36663;SDS011;53333;51.976;20.144;2022-07-25T12:53:21;2.20;;;1.45;;
36663;SDS011;53333;51.976;20.144;2022-07-25T12:55:55;2.80;;;1.33;;
36663;SDS011;53333;51.976;20.144;2022-07-25T12:58:28;1.50;;;1.40;;
36663;SDS011;53333;51.976;20.144;2022-07-25T13:01:04;2.28;;;1.48;;
36663;SDS011;53333;51.976;20.144;2022-07-25T13:03:38;3.80;;;1.80;;
36663;SDS011;53333;51.976;20.144;2022-07-25T13:06:12;1.95;;;1.63;;
36663;SDS011;53333;51.976;20.144;2022-07-25T13:08:46;4.20;;;1.60;;
36663;SDS011;53333;51.976;20.144;2022-07-25T13:11:19;1.90;;;1.55;;
36663;SDS011;53333;51.976;20.144;2022-07-25T13:13:56;2.28;;;1.60;;
36663;SDS011;53333;51.976;20.144;2022-07-25T13:16:31;2.47;;;1.55;;
36663;SDS011;53333;51.976;20.144;2022-07-25T13:19:08;2.50;;;1.80;;
36663;SDS011;53333;51.976;20.144;2022-07-25T13:21:42;2.75;;;2.17;;
36663;SDS011;53333;51.976;20.144;2022-07-25T13:24:16;3.92;;;3.20;;
36663;SDS011;53333;51.976;20.144;2022-07-25T13:26:50;2.30;;;1.77;;
36663;SDS011;53333;51.976;20.144;2022-07-25T13:29:24;4.50;;;1.80;;
36663;SDS011;53333;51.976;20.144;2022-07-25T13:31:59;2.08;;;1.80;;
36663;SDS011;53333;51.976;20.144;2022-07-25T13:34:34;3.00;;;1.67;;
36663;SDS011;53333;51.976;20.144;2022-07-25T13:37:08;3.17;;;1.63;;
36663;SDS011;53333;51.976;20.144;2022-07-25T13:39:42;2.53;;;1.65;;
36663;SDS011;53333;51.976;20.144;2022-07-25T13:42:15;5.05;;;1.90;;
36663;SDS011;53333;51.976;20.144;2022-07-25T13:44:52;8.40;;;1.88;;
36663;SDS011;53333;51.976;20.144;2022-07-25T13:47:27;2.30;;;1.60;;
36663;SDS011;53333;51.976;20.144;2022-07-25T13:50:02;3.85;;;1.83;;
36663;SDS011;53333;51.976;20.144;2022-07-25T13:52:36;5.35;;;1.70;;
36663;SDS011;53333;51.976;20.144;2022-07-25T13:55:10;2.88;;;1.42;;
36663;SDS011;53333;51.976;20.144;2022-07-25T13:57:43;2.50;;;1.38;;
36663;SDS011;53333;51.976;20.144;2022-07-25T14:00:22;2.20;;;1.90;;
36663;SDS011;53333;51.976;20.144;2022-07-25T14:02:59;2.55;;;1.63;;
36663;SDS011;53333;51.976;20.144;2022-07-25T14:05:33;2.22;;;1.58;;
36663;SDS011;53333;51.976;20.144;2022-07-25T14:08:07;4.00;;;1.73;;
36663;SDS011;53333;51.976;20.144;2022-07-25T14:10:40;4.03;;;1.67;;
36663;SDS011;53333;51.976;20.144;2022-07-25T14:13:14;2.95;;;1.60;;
36663;SDS011;53333;51.976;20.144;2022-07-25T14:15:48;3.35;;;1.77;;
36663;SDS011;53333;51.976;20.144;2022-07-25T14:18:23;7.80;;;2.75;;
36663;SDS011;53333;51.976;20.144;2022-07-25T14:20:57;3.15;;;1.80;;
36663;SDS011;53333;51.976;20.144;2022-07-25T14:23:31;6.10;;;1.50;;
36663;SDS011;53333;51.976;20.144;2022-07-25T14:26:07;4.38;;;1.67;;
36663;SDS011;53333;51.976;20.144;2022-07-25T14:28:46;5.32;;;1.50;;
36663;SDS011;53333;51.976;20.144;2022-07-25T14:31:22;1.77;;;1.58;;
36663;SDS011;53333;51.976;20.144;2022-07-25T14:33:57;3.10;;;1.92;;
36663;SDS011;53333;51.976;20.144;2022-07-25T14:36:32;2.47;;;1.50;;
36663;SDS011;53333;51.976;20.144;2022-07-25T14:39:07;2.65;;;1.85;;
36663;SDS011;53333;51.976;20.144;2022-07-25T14:41:43;2.00;;;1.52;;
36663;SDS011;53333;51.976;20.144;2022-07-25T14:44:17;2.85;;;1.50;;
36663;SDS011;53333;51.976;20.144;2022-07-25T14:46:51;2.30;;;1.73;;
36663;SDS011;53333;51.976;20.144;2022-07-25T14:49:26;1.65;;;1.38;;
36663;SDS011;53333;51.976;20.144;2022-07-25T14:52:01;2.45;;;1.52;;
36663;SDS011;53333;51.976;20.144;2022-07-25T14:54:38;3.00;;;1.70;;
36663;SDS011;53333;51.976;20.144;2022-07-25T14:57:12;2.13;;;1.73;;
36663;SDS011;53333;51.976;20.144;2022-07-25T14:59:46;3.38;;;1.70;;
36663;SDS011;53333;51.976;20.144;2022-07-25T15:02:20;4.13;;;1.63;;
36663;SDS011;53333;51.976;20.144;2022-07-25T15:04:57;3.28;;;1.60;;
36663;SDS011;53333;51.976;20.144;2022-07-25T15:07:31;2.47;;;2.00;;
36663;SDS011;53333;51.976;20.144;2022-07-25T15:10:05;4.32;;;1.90;;
36663;SDS011;53333;51.976;20.144;2022-07-25T15:12:39;1.95;;;1.67;;
36663;SDS011;53333;51.976;20.144;2022-07-25T15:15:13;3.60;;;1.75;;
36663;SDS011;53333;51.976;20.144;2022-07-25T15:17:46;4.90;;;1.75;;
36663;SDS011;53333;51.976;20.144;2022-07-25T15:20:21;4.55;;;3.00;;
36663;SDS011;53333;51.976;20.144;2022-07-25T15:22:55;1.77;;;1.45;;
36663;SDS011;53333;51.976;20.144;2022-07-25T15:25:29;4.85;;;1.60;;